Flag for Taiwan

Past Weather in 23°41'52"N, 120°57'37"E, Taiwan — Yesterday and Last 2 Weeks

Currently: 77 °F. Passing clouds. (Weather station: Chiang Kai Shek, Taiwan). See more current weather

Past Weather in 23°41'52"N, 120°57'37"E — Graph

°F

23°41'52"N, 120°57'37"E Temperature Yesterday

Maximum temperature yesterday: 86 °F (at 10:30 am)
Minimum temperature yesterday: 70 °F (at 9:00 pm)
Average temperature yesterday: 76 °F

High & Low Weather Summary for the Past Weeks

 TemperatureHumidityPressure
High88 °F (May 12, 12:00 pm)100% (May 4, 1:30 am)30.09 "Hg (May 4, 1:30 am)
Low61 °F (May 13, 7:30 pm)41% (May 15, 9:00 pm)29.74 "Hg (May 18, 3:00 pm)
Average75 °F80%29.92 "Hg
* Reported May 3 9:00 pm — May 18 9:00 pm, 23°41'52"N, 120°57'37"E. Weather by CustomWeather, © 2024

Note: Actual official high and low records may vary slightly from our data, if they occured in-between our weather recording intervals... More about our weather records

23°41'52"N, 120°57'37"E Weather History for the Previous 24 Hours

Scroll right to see more
 ConditionsComfort  
Time TempWeatherWind HumidityBarometerVisibility
9:00 pm
Sat, May 18
77 °FPassing clouds.12 mph83%29.80 "HgN/A
8:30 pm77 °FPassing clouds.12 mph83%29.80 "HgN/A
8:00 pm79 °FPassing clouds.10 mph79%29.80 "HgN/A
7:30 pm79 °FPassing clouds.12 mph79%29.77 "HgN/A
7:00 pm79 °FPassing clouds.14 mph79%29.77 "HgN/A
6:30 pm81 °FPartly sunny.13 mph74%29.77 "HgN/A
6:00 pm81 °FPartly sunny.9 mph84%29.77 "HgN/A
5:30 pm81 °FPartly sunny.13 mph84%29.77 "HgN/A
5:00 pm84 °FPartly sunny.13 mph74%29.74 "HgN/A
4:30 pm84 °FPartly sunny.13 mph70%29.74 "HgN/A
4:00 pm84 °FScattered clouds.15 mph74%29.74 "HgN/A
3:00 pm84 °FPartly sunny.17 mph74%29.74 "HgN/A
2:30 pm84 °FBroken clouds.16 mph74%29.77 "HgN/A
2:00 pm84 °FBroken clouds.16 mph74%29.77 "HgN/A
1:30 pm84 °FScattered clouds.17 mph74%29.77 "HgN/A
1:00 pm84 °FScattered clouds.17 mph74%29.80 "HgN/A
12:30 pm84 °FScattered clouds.17 mph74%29.80 "HgN/A
12:00 pm84 °FBroken clouds.13 mph74%29.83 "HgN/A
11:30 am82 °FPartly sunny.12 mph74%29.83 "HgN/A
11:00 am82 °FPartly sunny.9 mph74%29.86 "HgN/A
10:30 am82 °FPartly sunny.10 mph74%29.86 "HgN/A
10:00 am81 °FPartly sunny.12 mph79%29.86 "HgN/A
9:30 am81 °FPartly sunny.10 mph74%29.86 "HgN/A
9:00 am81 °FPartly sunny.6 mph79%29.89 "HgN/A
8:30 am81 °FPartly sunny.5 mph79%29.86 "HgN/A
8:00 am81 °FPartly sunny.3 mph79%29.89 "HgN/A
7:30 am77 °FPartly sunny.5 mph83%29.89 "Hg6 mi
7:00 am79 °FPartly sunny.2 mph84%29.86 "Hg5 mi
6:30 am75 °FPartly sunny.1 mph100%29.86 "Hg5 mi
6:00 am70 °FPartly sunny.5 mph100%29.86 "Hg4 mi
5:30 am70 °FPartly sunny.5 mph100%29.86 "Hg4 mi
5:00 am70 °FPassing clouds.5 mph100%29.86 "Hg4 mi
4:30 am70 °FPassing clouds.7 mph100%29.86 "Hg5 mi
4:00 am68 °FPassing clouds.7 mph100%29.86 "Hg5 mi
3:30 am68 °FPassing clouds.7 mph100%29.83 "Hg5 mi
3:00 am66 °FPassing clouds.7 mph100%29.83 "Hg6 mi
2:30 am68 °FPassing clouds.5 mph100%29.83 "Hg6 mi
2:00 am68 °FPassing clouds.2 mph100%29.86 "Hg6 mi
1:30 am68 °FPassing clouds.3 mph100%29.86 "HgN/A
1:00 am68 °FPassing clouds.2 mph100%29.86 "HgN/A
12:30 am70 °FPassing clouds.3 mph100%29.86 "HgN/A
12:00 am70 °FPassing clouds.2 mph100%29.89 "HgN/A
11:30 pm
Fri, May 17
70 °FPassing clouds.2 mph100%29.89 "HgN/A
11:00 pm70 °FPassing clouds.2 mph100%29.89 "HgN/A
10:30 pm70 °FPassing clouds.2 mph100%29.89 "HgN/A
10:00 pm70 °FPassing clouds.3 mph100%29.89 "HgN/A
Weather by CustomWeather, © 2024

See weather overview